LFRO/LAI METAR and TAF weather

Enter ICAO airport designator
Station Type Date Time Source
LFRO METAR 2018/12/10 09:00 UTC NOAA

LFRO 100900Z AUTO 29006KT 270V330 9999 SCT024 BKN038 BKN110 10/06 Q1031 NOSIG


Station Type Date Time Source
LFRO Decoded METAR 2018/12/10 09:00 UTC NOAA

Lannion / Servel, France (LFRO) 48-45N 003-28W
Dec 10, 2018 - 04:00 AM EST / 2018.12.10 0900 UTC
Wind: from the WNW (290 degrees) at 7 MPH (6 KT) (direction variable):0
Visibility: greater than 7 mile(s):0
Sky conditions: mostly cloudy
Temperature: 50 F (10 C)
Dew Point: 42 F (6 C)
Relative Humidity: 76%
Pressure (altimeter): 30.45 in. Hg (1031 hPa)
ob: LFRO 100900Z AUTO 29006KT 270V330 9999 SCT024 BKN038 BKN110 10/06 Q1031 NOSIG
cycle: 9

Station Type Date Time Source
LFRO TAF 2018/12/10 06:21 UTC NOAA

TAF LFRO 100500Z 1006/1106 28007KT 9999 BKN025 PROB40
TEMPO 1006/1008 -SHRA FEW020TCU
BECMG 1015/1018 VRB03KT


Example: see airport list